createdAt,value
2022-12-04T00:03:03.355Z,1.60
2022-12-04T00:07:08.341Z,1.60
2022-12-04T00:11:17.008Z,1.50
2022-12-04T00:15:26.268Z,1.60
2022-12-04T00:19:31.672Z,1.50
2022-12-04T00:23:38.152Z,1.60
2022-12-04T00:27:43.264Z,1.60
2022-12-04T00:31:48.422Z,1.60
2022-12-04T00:36:01.930Z,1.60
2022-12-04T00:40:07.931Z,1.60
2022-12-04T00:44:12.774Z,1.70
2022-12-04T00:48:17.678Z,1.70
2022-12-04T00:52:23.610Z,1.70
2022-12-04T00:56:30.041Z,1.60
2022-12-04T01:00:39.859Z,1.60
2022-12-04T01:04:44.746Z,1.60
2022-12-04T01:08:51.451Z,1.60
2022-12-04T01:12:56.314Z,1.70
2022-12-04T01:17:01.262Z,1.80
2022-12-04T01:21:06.450Z,1.70
2022-12-04T01:25:11.519Z,1.70
2022-12-04T01:29:16.373Z,1.80
2022-12-04T01:33:21.336Z,1.70
2022-12-04T01:37:26.226Z,1.70
2022-12-04T01:41:32.343Z,1.70
2022-12-04T01:45:54.221Z,1.70
2022-12-04T01:49:59.681Z,1.70
2022-12-04T01:54:14.252Z,1.70
2022-12-04T01:58:27.626Z,1.70
2022-12-04T02:02:37.116Z,1.60
2022-12-04T02:06:42.094Z,1.60
2022-12-04T02:11:08.787Z,1.60
2022-12-04T02:15:38.030Z,1.60
2022-12-04T02:20:30.924Z,1.60
2022-12-04T02:25:08.093Z,1.60
2022-12-04T02:30:04.168Z,1.60
2022-12-04T02:34:54.402Z,1.60
2022-12-04T02:39:12.426Z,1.70
2022-12-04T02:43:24.539Z,1.70
2022-12-04T02:47:30.651Z,1.70
2022-12-04T02:51:39.572Z,1.60
2022-12-04T02:55:57.101Z,1.70
2022-12-04T03:00:06.132Z,1.70
2022-12-04T03:04:21.427Z,1.80
2022-12-04T03:08:42.432Z,1.80
2022-12-04T03:13:18.595Z,1.80
2022-12-04T03:17:32.995Z,1.80
2022-12-04T03:21:42.976Z,1.80
2022-12-04T03:26:09.888Z,1.80
2022-12-04T03:30:19.021Z,1.80
2022-12-04T03:34:51.220Z,1.80
2022-12-04T03:39:28.150Z,1.80
2022-12-04T03:43:52.290Z,1.80
2022-12-04T03:48:22.634Z,1.80
2022-12-04T03:52:40.683Z,1.90
2022-12-04T03:56:54.053Z,1.90
2022-12-04T04:01:01.946Z,1.90
2022-12-04T04:05:10.356Z,1.90
2022-12-04T04:09:21.771Z,1.90
2022-12-04T04:13:54.571Z,1.90
2022-12-04T04:18:20.245Z,1.90
2022-12-04T04:23:01.702Z,1.90
2022-12-04T04:27:07.276Z,2.00
2022-12-04T04:31:36.768Z,1.90
2022-12-04T04:35:57.716Z,2.00
2022-12-04T04:40:22.581Z,2.00
2022-12-04T04:44:58.533Z,1.90
2022-12-04T04:49:07.409Z,1.90
2022-12-04T04:53:24.316Z,1.90
2022-12-04T04:57:32.068Z,1.90
2022-12-04T05:01:38.858Z,1.90
2022-12-04T05:05:43.816Z,1.80
2022-12-04T05:09:48.847Z,1.90
2022-12-04T05:13:53.936Z,1.80
2022-12-04T05:17:58.803Z,1.80
2022-12-04T05:22:03.844Z,1.90
2022-12-04T05:26:09.214Z,1.90
2022-12-04T05:30:14.506Z,1.90
2022-12-04T05:34:19.407Z,1.80
2022-12-04T05:38:24.449Z,1.90
2022-12-04T05:42:29.327Z,1.90
2022-12-04T05:46:34.306Z,1.90
2022-12-04T05:50:39.347Z,1.90
2022-12-04T05:54:44.337Z,1.90
2022-12-04T05:58:49.233Z,2.30
2022-12-04T06:02:54.165Z,2.20
2022-12-04T06:06:59.255Z,2.10
2022-12-04T06:11:15.372Z,2.10
2022-12-04T06:15:20.296Z,2.10
2022-12-04T06:19:25.181Z,2.00
2022-12-04T06:23:30.083Z,2.10
2022-12-04T06:27:34.944Z,2.10
2022-12-04T06:31:41.056Z,2.10
2022-12-04T06:35:45.918Z,2.10
2022-12-04T06:39:51.350Z,2.10
2022-12-04T06:43:56.645Z,2.10
2022-12-04T06:48:01.586Z,2.40
2022-12-04T06:52:06.446Z,2.30
2022-12-04T06:56:17.977Z,2.20
2022-12-04T07:00:23.024Z,2.20
2022-12-04T07:04:27.899Z,2.20
2022-12-04T07:08:32.872Z,2.20
2022-12-04T07:12:37.745Z,2.20
2022-12-04T07:16:43.213Z,2.20
2022-12-04T07:20:48.524Z,2.20
2022-12-04T07:24:53.555Z,2.30
2022-12-04T07:28:59.769Z,2.30
2022-12-04T07:33:05.595Z,2.30
2022-12-04T07:37:10.704Z,2.30
2022-12-04T07:41:16.194Z,2.30
2022-12-04T07:45:21.180Z,2.30
2022-12-04T07:49:26.077Z,2.30
2022-12-04T07:53:31.114Z,2.40
2022-12-04T07:57:36.096Z,2.40
2022-12-04T08:01:41.001Z,2.40
2022-12-04T08:05:45.928Z,2.50
2022-12-04T08:09:50.810Z,2.50
2022-12-04T08:14:06.076Z,2.50
2022-12-04T08:18:11.011Z,2.50
2022-12-04T08:22:20.380Z,2.60
2022-12-04T08:26:30.647Z,2.60
2022-12-04T08:30:36.255Z,2.70
2022-12-04T08:34:41.273Z,2.60
2022-12-04T08:38:47.776Z,2.70
2022-12-04T08:42:52.649Z,2.70
2022-12-04T08:46:57.533Z,2.70
2022-12-04T08:51:04.391Z,2.70
2022-12-04T08:55:09.835Z,2.70
2022-12-04T08:59:14.741Z,2.80
2022-12-04T09:03:24.885Z,2.90
2022-12-04T09:07:34.227Z,2.90
2022-12-04T09:11:39.624Z,3.00
2022-12-04T09:15:44.582Z,3.00
2022-12-04T09:19:50.217Z,3.10
2022-12-04T09:23:55.203Z,3.10
2022-12-04T09:28:00.135Z,3.20
2022-12-04T09:32:05.251Z,3.30
2022-12-04T09:36:15.978Z,3.30
2022-12-04T09:40:55.507Z,3.40
2022-12-04T09:45:19.725Z,3.50
2022-12-04T09:49:43.360Z,3.50
2022-12-04T09:54:03.559Z,3.60
2022-12-04T09:58:20.994Z,3.60
2022-12-04T10:02:48.672Z,3.70
2022-12-04T10:07:05.037Z,3.80
2022-12-04T10:11:31.975Z,3.80
2022-12-04T10:16:16.204Z,3.90
2022-12-04T10:20:45.090Z,4.10
2022-12-04T10:25:27.394Z,4.10
2022-12-04T10:29:36.155Z,4.10
2022-12-04T10:34:05.864Z,4.10
2022-12-04T10:38:34.443Z,4.20
2022-12-04T10:42:48.723Z,4.30
2022-12-04T10:47:00.105Z,4.30
2022-12-04T10:51:05.220Z,4.40
2022-12-04T10:55:11.728Z,4.40
2022-12-04T10:59:16.694Z,4.40
2022-12-04T11:03:28.749Z,4.50
2022-12-04T11:07:46.030Z,4.50
2022-12-04T11:11:52.340Z,4.60
2022-12-04T11:15:59.461Z,4.60
2022-12-04T11:20:24.893Z,4.60
2022-12-04T11:24:37.024Z,4.70
2022-12-04T11:28:51.060Z,4.70
2022-12-04T11:32:56.925Z,4.80
2022-12-04T11:37:02.520Z,4.80
2022-12-04T11:41:24.568Z,4.90
2022-12-04T11:45:29.787Z,4.90
2022-12-04T11:49:37.397Z,5.00
2022-12-04T11:54:03.604Z,5.00
2022-12-04T11:58:50.805Z,5.00
2022-12-04T12:03:37.255Z,5.00
2022-12-04T12:08:01.930Z,5.10
2022-12-04T12:12:16.370Z,5.10
2022-12-04T12:17:08.355Z,5.10
2022-12-04T12:21:46.283Z,5.20
2022-12-04T12:26:22.873Z,5.20
2022-12-04T12:30:51.942Z,5.20
2022-12-04T12:34:56.850Z,5.30
2022-12-04T12:39:16.925Z,5.30
2022-12-04T12:43:30.896Z,5.30
2022-12-04T12:47:42.718Z,5.30
2022-12-04T12:52:00.498Z,5.30
2022-12-04T12:56:11.911Z,5.40
2022-12-04T13:00:22.354Z,5.40
2022-12-04T13:04:43.841Z,5.40
2022-12-04T13:09:05.986Z,5.50
2022-12-04T13:13:28.871Z,5.50
2022-12-04T13:17:38.919Z,5.50
2022-12-04T13:22:15.646Z,5.50
2022-12-04T13:26:39.377Z,5.60
2022-12-04T13:31:09.982Z,5.60
2022-12-04T13:35:29.948Z,5.60
2022-12-04T13:40:26.536Z,5.50
2022-12-04T13:44:34.315Z,5.60
2022-12-04T13:48:42.505Z,5.60
2022-12-04T13:52:49.372Z,5.60
2022-12-04T13:57:20.959Z,5.60
2022-12-04T14:01:40.352Z,5.60
2022-12-04T14:05:45.506Z,5.70
2022-12-04T14:09:53.667Z,5.80
2022-12-04T14:14:03.602Z,5.80
2022-12-04T14:18:13.200Z,5.80
2022-12-04T14:22:40.600Z,5.80
2022-12-04T14:31:38.936Z,5.80
2022-12-04T14:35:58.363Z,5.90
2022-12-04T14:40:07.342Z,5.90
2022-12-04T14:44:30.378Z,5.90
2022-12-04T14:48:53.429Z,5.90
2022-12-04T14:53:30.687Z,5.90
2022-12-04T14:58:00.325Z,5.90
2022-12-04T15:02:12.484Z,5.90
2022-12-04T15:06:28.840Z,5.90
2022-12-04T15:10:54.084Z,6.00
2022-12-04T15:15:05.336Z,6.00
2022-12-04T15:19:21.307Z,6.00
2022-12-04T15:23:41.556Z,6.00
2022-12-04T15:27:49.509Z,6.00
2022-12-04T15:31:58.520Z,6.00
2022-12-04T15:36:15.586Z,6.10
2022-12-04T15:40:27.406Z,6.00
2022-12-04T15:44:35.445Z,6.00
2022-12-04T15:48:45.035Z,6.00
2022-12-04T15:53:07.151Z,6.00
2022-12-04T15:57:34.084Z,6.00
2022-12-04T16:01:40.487Z,6.00
2022-12-04T16:05:45.501Z,6.00
2022-12-04T16:10:02.862Z,6.00
2022-12-04T16:14:08.234Z,6.10
2022-12-04T16:18:14.244Z,6.00
2022-12-04T16:22:24.158Z,6.00
2022-12-04T16:26:29.132Z,6.00
2022-12-04T16:30:35.832Z,6.00
2022-12-04T16:34:40.978Z,5.90
2022-12-04T16:38:45.929Z,6.00
2022-12-04T16:42:50.778Z,6.00
2022-12-04T16:46:55.702Z,6.00
2022-12-04T16:51:01.204Z,6.00
2022-12-04T16:55:35.984Z,6.00
2022-12-04T16:59:40.813Z,6.00
2022-12-04T17:03:46.113Z,5.90
2022-12-04T17:07:51.235Z,5.90
2022-12-04T17:11:56.250Z,5.90
2022-12-04T17:16:01.141Z,5.90
2022-12-04T17:20:12.652Z,5.90
2022-12-04T17:24:17.442Z,6.00
2022-12-04T17:28:22.363Z,6.00
2022-12-04T17:32:30.870Z,6.30
2022-12-04T17:36:35.870Z,6.10
2022-12-04T17:40:40.772Z,6.00
2022-12-04T17:44:45.912Z,6.00
2022-12-04T17:48:50.986Z,6.00
2022-12-04T17:52:56.079Z,5.90
2022-12-04T17:57:00.989Z,5.90
2022-12-04T18:01:15.854Z,5.90
2022-12-04T18:05:21.200Z,5.90
2022-12-04T18:09:26.159Z,5.90
2022-12-04T18:13:31.068Z,5.90
2022-12-04T18:17:37.051Z,5.90
2022-12-04T18:21:42.137Z,5.90
2022-12-04T18:25:58.859Z,5.90
2022-12-04T18:30:05.125Z,5.90
2022-12-04T18:34:10.943Z,5.90
2022-12-04T18:38:15.911Z,5.90
2022-12-04T18:42:20.878Z,5.90
2022-12-04T18:46:26.213Z,5.90
2022-12-04T18:50:31.226Z,5.90
2022-12-04T18:54:36.098Z,5.90
2022-12-04T18:58:41.389Z,5.90
2022-12-04T19:02:46.505Z,5.90
2022-12-04T19:06:55.429Z,5.80
2022-12-04T19:11:13.602Z,5.90
2022-12-04T19:15:19.811Z,5.90
2022-12-04T19:19:30.146Z,5.90
2022-12-04T19:23:36.515Z,5.90
2022-12-04T19:27:41.408Z,5.90
2022-12-04T19:31:48.461Z,5.90
2022-12-04T19:36:02.781Z,5.90
2022-12-04T19:40:08.685Z,6.00
2022-12-04T19:44:46.787Z,6.00
2022-12-04T19:48:40.255Z,6.00
2022-12-04T19:52:45.166Z,6.00
2022-12-04T19:56:52.441Z,6.00
2022-12-04T20:01:04.381Z,5.90
2022-12-04T20:05:09.446Z,5.90
2022-12-04T20:09:20.683Z,6.00
2022-12-04T20:13:25.637Z,6.00
2022-12-04T20:17:31.390Z,6.00
2022-12-04T20:21:36.310Z,6.00
2022-12-04T20:25:41.200Z,5.90
2022-12-04T20:29:46.181Z,5.90
2022-12-04T20:33:53.242Z,5.90
2022-12-04T20:37:58.150Z,5.90
2022-12-04T20:42:03.410Z,6.00
2022-12-04T20:46:36.769Z,5.90
2022-12-04T20:50:45.927Z,5.90
2022-12-04T20:54:50.867Z,5.90
2022-12-04T20:58:58.239Z,5.90
2022-12-04T21:03:03.200Z,5.90
2022-12-04T21:07:08.333Z,5.90
2022-12-04T21:11:13.249Z,6.00
2022-12-04T21:15:36.559Z,5.90
2022-12-04T21:19:41.452Z,5.90
2022-12-04T21:23:46.377Z,5.90
2022-12-04T21:27:51.911Z,5.90
2022-12-04T21:31:56.783Z,5.90
2022-12-04T21:36:09.712Z,6.00
2022-12-04T21:40:14.700Z,6.00
2022-12-04T21:44:21.164Z,6.00
2022-12-04T21:48:26.701Z,6.00
2022-12-04T21:52:31.702Z,6.00
2022-12-04T21:56:36.761Z,6.00
2022-12-04T22:00:41.706Z,6.00
2022-12-04T22:04:46.805Z,6.00
2022-12-04T22:08:52.715Z,6.00
2022-12-04T22:12:57.616Z,6.00
2022-12-04T22:17:02.586Z,6.00
2022-12-04T22:21:16.090Z,6.00
2022-12-04T22:25:20.967Z,6.00
2022-12-04T22:33:54.329Z,6.10
2022-12-04T22:37:59.342Z,6.00
2022-12-04T22:42:04.451Z,6.10
2022-12-04T22:46:11.199Z,6.10
2022-12-04T22:50:16.197Z,6.00
2022-12-04T22:54:21.312Z,6.00
2022-12-04T22:58:26.225Z,6.10
2022-12-04T23:02:33.066Z,6.10
2022-12-04T23:06:38.489Z,6.10
2022-12-04T23:10:43.427Z,6.10
2022-12-04T23:14:48.334Z,6.10
2022-12-04T23:18:53.689Z,6.10
2022-12-04T23:22:59.442Z,6.10
2022-12-04T23:27:04.811Z,6.10
2022-12-04T23:31:11.078Z,6.10
2022-12-04T23:35:16.188Z,6.10
2022-12-04T23:39:21.093Z,6.10
2022-12-04T23:43:26.223Z,6.10
2022-12-04T23:47:31.184Z,6.10
2022-12-04T23:51:36.057Z,6.10
2022-12-04T23:55:40.953Z,6.10
2022-12-04T23:59:45.792Z,6.10
